createdAt,value
2019-03-27T00:01:00.540Z,88.32
2019-03-27T00:02:01.086Z,88.04
2019-03-27T00:03:01.566Z,87.92
2019-03-27T00:04:01.983Z,88.37
2019-03-27T00:05:02.561Z,88.46
2019-03-27T00:06:02.550Z,88.43
2019-03-27T00:07:03.129Z,88.40
2019-03-27T00:08:03.829Z,88.65
2019-03-27T00:09:04.311Z,88.77
2019-03-27T00:10:04.825Z,88.84
2019-03-27T00:11:05.539Z,88.99
2019-03-27T00:12:06.087Z,88.80
2019-03-27T00:13:06.441Z,88.89
2019-03-27T00:14:07.181Z,88.64
2019-03-27T00:15:13.248Z,88.16
2019-03-27T00:16:07.509Z,88.20
2019-03-27T00:17:08.147Z,88.12
2019-03-27T00:18:09.839Z,88.13
2019-03-27T00:19:10.393Z,88.21
2019-03-27T00:20:10.968Z,88.11
2019-03-27T00:21:11.707Z,88.11
2019-03-27T00:22:12.228Z,88.22
2019-03-27T00:22:20.768Z,87.98
2019-03-27T00:23:22.525Z,87.99
2019-03-27T00:24:23.145Z,88.28
2019-03-27T00:25:23.712Z,88.40
2019-03-27T00:26:24.207Z,88.52
2019-03-27T00:27:23.732Z,88.40
2019-03-27T00:28:24.971Z,88.56
2019-03-27T00:29:25.714Z,88.98
2019-03-27T00:30:26.148Z,88.85
2019-03-27T00:31:26.956Z,88.70
2019-03-27T00:32:27.440Z,88.79
2019-03-27T00:33:27.867Z,89.00
2019-03-27T00:34:28.764Z,89.51
2019-03-27T00:35:29.440Z,89.43
2019-03-27T00:36:29.957Z,89.57
2019-03-27T00:37:30.375Z,89.38
2019-03-27T00:38:30.840Z,89.14
2019-03-27T00:39:31.684Z,88.88
2019-03-27T00:40:32.162Z,88.75
2019-03-27T00:41:32.997Z,88.67
2019-03-27T00:42:33.890Z,88.51
2019-03-27T00:43:34.716Z,88.80
2019-03-27T00:44:34.307Z,89.17
2019-03-27T00:45:35.541Z,89.65
2019-03-27T00:46:36.016Z,89.26
2019-03-27T00:47:36.466Z,89.45
2019-03-27T00:48:36.933Z,89.60
2019-03-27T00:49:37.930Z,90.10
2019-03-27T00:50:38.344Z,89.93
2019-03-27T00:51:39.034Z,89.88
2019-03-27T00:52:39.404Z,89.78
2019-03-27T00:53:38.875Z,89.71
2019-03-27T00:54:40.407Z,89.61
2019-03-27T00:55:39.808Z,89.67
2019-03-27T00:56:41.281Z,89.89
2019-03-27T00:57:41.711Z,89.84
2019-03-27T00:58:42.238Z,89.73
2019-03-27T00:59:42.688Z,89.56
2019-03-27T01:00:42.990Z,89.41
2019-03-27T01:01:43.682Z,89.54
2019-03-27T01:02:44.132Z,89.92
2019-03-27T01:03:44.633Z,90.19
2019-03-27T01:04:45.291Z,90.35
2019-03-27T01:05:46.053Z,90.62
2019-03-27T01:06:45.485Z,91.04
2019-03-27T01:07:46.056Z,90.97
2019-03-27T01:08:47.675Z,90.76
2019-03-27T01:09:48.139Z,91.10
2019-03-27T01:09:58.755Z,91.30
2019-03-27T01:10:59.227Z,91.27
2019-03-27T01:12:00.699Z,91.12
2019-03-27T01:13:01.198Z,91.45
2019-03-27T01:14:01.888Z,91.70
2019-03-27T01:15:02.612Z,91.88
2019-03-27T01:16:03.455Z,91.89
2019-03-27T01:17:04.164Z,91.44
2019-03-27T01:18:04.745Z,91.48
2019-03-27T01:19:04.234Z,91.91
2019-03-27T01:20:05.801Z,91.98
2019-03-27T01:21:06.451Z,91.85
2019-03-27T01:22:05.978Z,92.06
2019-03-27T01:23:07.475Z,92.00
2019-03-27T01:24:07.943Z,92.00
2019-03-27T01:25:08.472Z,91.86
2019-03-27T01:26:09.118Z,91.98
2019-03-27T01:27:09.696Z,92.11
2019-03-27T01:28:10.144Z,92.27
2019-03-27T01:29:10.688Z,92.40
2019-03-27T01:30:11.073Z,92.57
2019-03-27T01:31:11.407Z,92.36
2019-03-27T01:32:11.995Z,92.54
2019-03-27T01:33:12.615Z,92.56
2019-03-27T01:34:13.040Z,92.48
2019-03-27T01:35:13.306Z,92.49
2019-03-27T01:36:13.709Z,92.83
2019-03-27T01:37:14.257Z,92.77
2019-03-27T01:38:14.891Z,92.56
2019-03-27T01:39:15.598Z,92.52
2019-03-27T01:40:16.157Z,92.72
2019-03-27T01:41:16.677Z,92.31
2019-03-27T01:42:16.996Z,92.25
2019-03-27T01:43:17.474Z,92.25
2019-03-27T01:44:17.902Z,92.30
2019-03-27T01:45:18.353Z,92.51
2019-03-27T01:46:18.850Z,92.63
2019-03-27T01:47:19.285Z,92.45
2019-03-27T01:48:19.777Z,92.29
2019-03-27T01:49:20.283Z,92.37
2019-03-27T01:50:20.781Z,92.37
2019-03-27T01:51:21.365Z,92.23
2019-03-27T01:52:21.795Z,92.09
2019-03-27T01:53:22.608Z,92.37
2019-03-27T01:54:23.105Z,92.57
2019-03-27T01:55:23.748Z,92.35
2019-03-27T01:55:32.757Z,92.45
2019-03-27T01:56:34.138Z,92.46
2019-03-27T01:57:34.534Z,92.23
2019-03-27T01:58:35.088Z,92.02
2019-03-27T01:59:35.606Z,92.09
2019-03-27T02:00:36.087Z,92.37
2019-03-27T02:01:36.563Z,92.32
2019-03-27T02:02:37.045Z,92.29
2019-03-27T02:03:37.795Z,92.66
2019-03-27T02:04:38.369Z,92.42
2019-03-27T02:05:38.657Z,92.52
2019-03-27T02:06:39.082Z,92.51
2019-03-27T02:07:39.576Z,92.66
2019-03-27T02:08:39.044Z,92.48
2019-03-27T02:09:40.620Z,92.40
2019-03-27T02:10:41.019Z,92.60
2019-03-27T02:11:41.538Z,92.62
2019-03-27T02:12:41.930Z,92.76
2019-03-27T02:13:42.469Z,92.56
2019-03-27T02:14:43.070Z,92.55
2019-03-27T02:15:43.373Z,92.46
2019-03-27T02:16:43.814Z,92.31
2019-03-27T02:17:44.289Z,92.23
2019-03-27T02:18:44.734Z,92.36
2019-03-27T02:19:45.298Z,92.33
2019-03-27T02:20:45.718Z,92.01
2019-03-27T02:21:45.996Z,91.94
2019-03-27T02:22:46.473Z,91.69
2019-03-27T02:23:46.962Z,91.79
2019-03-27T02:24:47.738Z,91.84
2019-03-27T02:25:48.218Z,91.82
2019-03-27T02:26:48.566Z,91.70
2019-03-27T02:27:48.881Z,91.66
2019-03-27T02:28:49.355Z,91.63
2019-03-27T02:29:49.929Z,91.79
2019-03-27T02:30:50.496Z,92.04
2019-03-27T02:31:50.892Z,92.10
2019-03-27T02:32:51.247Z,92.41
2019-03-27T02:33:51.654Z,92.46
2019-03-27T02:34:52.238Z,92.58
2019-03-27T02:35:53.067Z,92.43
2019-03-27T02:36:53.712Z,92.63
2019-03-27T02:37:54.112Z,92.87
2019-03-27T02:38:54.568Z,92.58
2019-03-27T02:39:03.084Z,92.69
2019-03-27T02:40:04.501Z,92.69
2019-03-27T02:41:05.109Z,92.73
2019-03-27T02:42:05.601Z,93.03
2019-03-27T02:43:06.114Z,92.62
2019-03-27T02:44:06.612Z,92.43
2019-03-27T02:45:07.479Z,92.41
2019-03-27T02:46:23.340Z,92.71
2019-03-27T02:47:07.552Z,92.68
2019-03-27T02:48:08.956Z,93.14
2019-03-27T02:49:09.404Z,93.21
2019-03-27T02:50:09.737Z,93.18
2019-03-27T02:51:10.330Z,93.17
2019-03-27T02:52:10.763Z,93.25
2019-03-27T02:53:11.265Z,93.35
2019-03-27T02:54:11.702Z,93.38
2019-03-27T02:55:12.098Z,93.74
2019-03-27T02:56:12.635Z,93.57
2019-03-27T02:57:13.258Z,93.54
2019-03-27T02:58:13.743Z,93.39
2019-03-27T02:59:14.455Z,93.08
2019-03-27T03:00:15.323Z,92.78
2019-03-27T03:01:16.192Z,92.81
2019-03-27T03:02:16.673Z,92.86
2019-03-27T03:03:17.087Z,93.22
2019-03-27T03:04:17.403Z,93.09
2019-03-27T03:05:17.805Z,92.95
2019-03-27T03:06:18.351Z,93.07
2019-03-27T03:07:19.101Z,93.10
2019-03-27T03:08:19.596Z,93.02
2019-03-27T03:09:20.159Z,92.99
2019-03-27T03:10:20.647Z,92.75
2019-03-27T03:11:21.195Z,92.73
2019-03-27T03:12:21.862Z,92.80
2019-03-27T03:13:22.566Z,92.70
2019-03-27T03:14:23.297Z,93.12
2019-03-27T03:15:24.220Z,92.97
2019-03-27T03:16:40.885Z,93.21
2019-03-27T03:17:24.317Z,93.31
2019-03-27T03:18:25.764Z,93.34
2019-03-27T03:19:26.232Z,93.75
2019-03-27T03:20:25.838Z,94.05
2019-03-27T03:21:27.341Z,94.27
2019-03-27T03:22:27.859Z,94.40
2019-03-27T03:23:28.461Z,94.38
2019-03-27T03:24:28.917Z,94.65
2019-03-27T03:25:29.450Z,94.99
2019-03-27T03:25:38.016Z,94.89
2019-03-27T03:26:39.528Z,94.87
2019-03-27T03:27:39.162Z,94.86
2019-03-27T03:28:40.894Z,95.10
2019-03-27T03:29:41.431Z,94.91
2019-03-27T03:30:41.705Z,94.75
2019-03-27T03:31:41.424Z,94.48
2019-03-27T03:32:42.896Z,94.28
2019-03-27T03:33:42.314Z,94.13
2019-03-27T03:34:42.741Z,94.69
2019-03-27T03:35:44.238Z,94.66
2019-03-27T03:36:45.063Z,94.76
2019-03-27T03:37:45.474Z,94.34
2019-03-27T03:38:44.578Z,94.39
2019-03-27T03:39:46.040Z,94.58
2019-03-27T03:40:46.466Z,94.47
2019-03-27T03:41:47.045Z,94.14
2019-03-27T03:42:46.549Z,94.04
2019-03-27T03:43:48.000Z,94.14
2019-03-27T03:44:48.488Z,94.38
2019-03-27T03:45:48.977Z,94.45
2019-03-27T03:46:59.502Z,94.41
2019-03-27T03:47:49.120Z,94.68
2019-03-27T03:48:51.014Z,94.63
2019-03-27T03:49:51.626Z,94.47
2019-03-27T03:50:51.213Z,94.78
2019-03-27T03:51:52.816Z,94.19
2019-03-27T03:52:53.378Z,94.55
2019-03-27T03:53:54.107Z,94.33
2019-03-27T03:54:55.061Z,94.36
2019-03-27T03:55:55.654Z,94.50
2019-03-27T03:56:57.401Z,94.84
2019-03-27T03:57:56.916Z,94.71
2019-03-27T03:58:57.388Z,94.58
2019-03-27T03:59:58.244Z,94.39
2019-03-27T04:00:58.926Z,94.40
2019-03-27T04:01:59.543Z,94.34
2019-03-27T04:03:00.143Z,94.53
2019-03-27T04:04:00.594Z,94.51
2019-03-27T04:05:01.349Z,94.83
2019-03-27T04:06:02.174Z,95.02
2019-03-27T04:07:02.108Z,95.00
2019-03-27T04:08:04.079Z,94.72
2019-03-27T04:09:03.650Z,94.50
2019-03-27T04:10:05.090Z,94.99
2019-03-27T04:11:05.758Z,95.00
2019-03-27T04:12:06.370Z,95.38
2019-03-27T04:13:06.825Z,94.98
2019-03-27T04:14:07.483Z,95.18
2019-03-27T04:15:07.979Z,94.97
2019-03-27T04:15:16.572Z,94.94
2019-03-27T04:16:18.188Z,94.93
2019-03-27T04:17:18.672Z,95.21
2019-03-27T04:18:19.252Z,95.52
2019-03-27T04:19:19.810Z,95.71
2019-03-27T04:20:20.560Z,95.60
2019-03-27T04:21:21.283Z,95.58
2019-03-27T04:22:21.776Z,95.19
2019-03-27T04:23:22.250Z,95.58
2019-03-27T04:24:23.060Z,95.24
2019-03-27T04:25:22.433Z,95.25
2019-03-27T04:26:23.723Z,95.20
2019-03-27T04:27:24.474Z,95.20
2019-03-27T04:28:24.955Z,95.05
2019-03-27T04:29:25.749Z,94.90
2019-03-27T04:30:25.240Z,94.58
2019-03-27T04:31:26.992Z,94.98
2019-03-27T04:32:26.531Z,94.99
2019-03-27T04:33:28.270Z,94.76
2019-03-27T04:34:28.660Z,94.63
2019-03-27T04:35:29.241Z,94.39
2019-03-27T04:36:29.786Z,94.38
2019-03-27T04:37:30.434Z,94.00
2019-03-27T04:38:31.182Z,94.02
2019-03-27T04:39:31.574Z,94.11
2019-03-27T04:40:32.162Z,94.03
2019-03-27T04:41:32.684Z,94.46
2019-03-27T04:42:33.220Z,94.44
2019-03-27T04:43:33.970Z,94.72
2019-03-27T04:44:34.474Z,94.42
2019-03-27T04:45:34.969Z,94.22
2019-03-27T04:46:35.687Z,94.99
2019-03-27T04:47:36.287Z,95.15
2019-03-27T04:48:36.308Z,94.70
2019-03-27T04:49:36.775Z,95.00
2019-03-27T04:50:37.222Z,95.12
2019-03-27T04:51:37.908Z,95.43
2019-03-27T04:52:38.366Z,95.58
2019-03-27T04:53:38.816Z,95.03
2019-03-27T04:54:39.738Z,95.10
2019-03-27T04:55:40.171Z,95.31
2019-03-27T04:56:41.080Z,95.17
2019-03-27T04:57:41.832Z,95.57
2019-03-27T04:58:42.395Z,95.67
2019-03-27T04:59:42.876Z,95.63
2019-03-27T05:00:43.419Z,95.79
2019-03-27T05:00:52.069Z,95.96
2019-03-27T05:01:52.484Z,95.96
2019-03-27T05:02:53.965Z,95.91
2019-03-27T05:03:53.983Z,95.84
2019-03-27T05:04:54.459Z,95.72
2019-03-27T05:05:54.961Z,95.89
2019-03-27T05:06:55.395Z,95.58
2019-03-27T05:07:55.926Z,95.60
2019-03-27T05:08:56.468Z,95.63
2019-03-27T05:09:56.934Z,95.56
2019-03-27T05:10:57.451Z,95.40
2019-03-27T05:11:58.030Z,95.49
2019-03-27T05:12:58.766Z,95.68
2019-03-27T05:13:59.214Z,95.71
2019-03-27T05:15:00.017Z,95.70
2019-03-27T05:16:00.594Z,95.65
2019-03-27T05:17:01.135Z,95.53
2019-03-27T05:18:01.735Z,95.58
2019-03-27T05:19:02.330Z,95.56
2019-03-27T05:20:02.982Z,95.39
2019-03-27T05:21:03.460Z,95.75
2019-03-27T05:22:02.991Z,95.92
2019-03-27T05:23:03.543Z,95.49
2019-03-27T05:24:05.088Z,95.58
2019-03-27T05:25:05.568Z,95.64
2019-03-27T05:26:06.012Z,95.76
2019-03-27T05:27:06.701Z,95.62
2019-03-27T05:28:07.189Z,95.93
2019-03-27T05:29:07.689Z,96.74
2019-03-27T05:30:09.145Z,96.77
2019-03-27T05:31:08.840Z,97.22
2019-03-27T05:32:09.323Z,96.94
2019-03-27T05:33:10.016Z,96.89
2019-03-27T05:34:10.432Z,96.60
2019-03-27T05:35:09.910Z,96.35
2019-03-27T05:36:11.713Z,96.61
2019-03-27T05:37:12.235Z,96.34
2019-03-27T05:38:13.049Z,96.71
2019-03-27T05:39:14.720Z,96.50
2019-03-27T05:40:13.045Z,96.59
2019-03-27T05:41:14.529Z,97.18
2019-03-27T05:42:15.292Z,96.90
2019-03-27T05:43:15.799Z,96.53
2019-03-27T05:44:16.258Z,96.70
2019-03-27T05:45:16.721Z,97.00
2019-03-27T05:46:17.506Z,97.02
2019-03-27T05:47:18.113Z,96.71
2019-03-27T05:47:26.683Z,97.05
2019-03-27T05:48:29.519Z,97.04
2019-03-27T05:49:29.180Z,97.08
2019-03-27T05:50:29.886Z,96.88
2019-03-27T05:51:30.353Z,96.51
2019-03-27T05:52:31.101Z,96.33
2019-03-27T05:53:32.083Z,96.22
2019-03-27T05:54:32.830Z,95.93
2019-03-27T05:55:33.360Z,96.07
2019-03-27T05:56:33.834Z,96.40
2019-03-27T05:57:34.588Z,96.34
2019-03-27T05:58:35.158Z,96.18
2019-03-27T05:59:34.571Z,96.08
2019-03-27T06:00:35.999Z,96.53
2019-03-27T06:01:36.738Z,96.04
2019-03-27T06:02:37.267Z,95.77
2019-03-27T06:03:37.951Z,95.68
2019-03-27T06:04:38.397Z,95.92
2019-03-27T06:05:38.891Z,95.59
2019-03-27T06:06:39.578Z,95.26
2019-03-27T06:07:40.305Z,95.29
2019-03-27T06:08:40.980Z,94.83
2019-03-27T06:09:41.356Z,94.71
2019-03-27T06:10:41.930Z,94.59
2019-03-27T06:11:41.412Z,94.59
2019-03-27T06:12:42.840Z,94.66
2019-03-27T06:13:43.721Z,94.51
2019-03-27T06:14:44.252Z,94.40
2019-03-27T06:15:45.264Z,94.52
2019-03-27T06:16:44.172Z,94.55
2019-03-27T06:17:45.754Z,94.12
2019-03-27T06:18:46.196Z,93.84
2019-03-27T06:19:47.020Z,93.50
2019-03-27T06:20:47.863Z,93.61
2019-03-27T06:21:48.455Z,93.48
2019-03-27T06:22:49.035Z,94.32
2019-03-27T06:23:49.483Z,95.03
2019-03-27T06:24:50.005Z,93.99
2019-03-27T06:25:50.696Z,93.50
2019-03-27T06:26:51.402Z,93.48
2019-03-27T06:27:51.937Z,93.41
2019-03-27T06:28:52.711Z,93.36
2019-03-27T06:29:53.277Z,92.84
2019-03-27T06:30:53.710Z,92.16
2019-03-27T06:31:54.232Z,92.16
2019-03-27T06:32:02.827Z,93.26
2019-03-27T06:33:03.969Z,93.28
2019-03-27T06:34:04.553Z,92.44
2019-03-27T06:35:05.128Z,91.79
2019-03-27T06:36:05.638Z,91.44
2019-03-27T06:37:06.421Z,91.61
2019-03-27T06:38:07.119Z,90.62
2019-03-27T06:39:07.654Z,91.00
2019-03-27T06:40:07.110Z,90.93
2019-03-27T06:41:08.694Z,90.38
2019-03-27T06:42:09.231Z,89.35
2019-03-27T06:43:09.695Z,90.17
2019-03-27T06:44:10.563Z,90.42
2019-03-27T06:45:11.178Z,90.02
2019-03-27T06:46:11.901Z,90.22
2019-03-27T06:47:12.600Z,90.78
2019-03-27T06:48:25.480Z,90.25
2019-03-27T06:49:12.577Z,90.22
2019-03-27T06:50:13.980Z,89.87
2019-03-27T06:51:14.414Z,89.99
2019-03-27T06:52:14.891Z,89.04
2019-03-27T06:53:15.264Z,88.72
2019-03-27T06:54:15.857Z,88.80
2019-03-27T06:55:16.791Z,89.15
2019-03-27T06:56:17.106Z,89.65
2019-03-27T06:57:17.578Z,89.78
2019-03-27T06:58:16.949Z,89.37
2019-03-27T06:59:18.402Z,89.84
2019-03-27T07:00:18.874Z,89.47
2019-03-27T07:01:19.283Z,89.23
2019-03-27T07:02:19.776Z,88.97
2019-03-27T07:03:20.129Z,88.95
2019-03-27T07:04:20.573Z,88.47
2019-03-27T07:05:21.511Z,87.83
2019-03-27T07:06:21.910Z,86.74
2019-03-27T07:07:22.322Z,86.35
2019-03-27T07:08:22.687Z,86.07
2019-03-27T07:09:23.081Z,84.30
2019-03-27T07:10:23.628Z,84.60
2019-03-27T07:11:24.192Z,84.27
2019-03-27T07:12:24.494Z,84.04
2019-03-27T07:13:25.291Z,84.82
2019-03-27T07:14:26.105Z,84.73
2019-03-27T07:15:26.936Z,84.00
2019-03-27T07:17:30.944Z,84.20
2019-03-27T07:18:40.110Z,84.19
2019-03-27T07:19:32.065Z,83.95
2019-03-27T07:20:33.965Z,83.24
2019-03-27T07:21:34.772Z,83.08
2019-03-27T07:22:35.330Z,82.96
2019-03-27T07:23:36.250Z,82.54
2019-03-27T07:24:36.505Z,82.11
2019-03-27T07:25:36.880Z,80.42
2019-03-27T07:26:37.108Z,79.36
2019-03-27T07:27:37.629Z,78.01
2019-03-27T07:28:38.455Z,78.31
2019-03-27T07:29:38.960Z,77.15
2019-03-27T07:30:39.378Z,77.13
2019-03-27T07:31:39.717Z,76.23
2019-03-27T07:32:40.128Z,75.80
2019-03-27T07:33:40.545Z,73.97
2019-03-27T07:34:40.989Z,73.34
2019-03-27T07:35:41.566Z,71.86
2019-03-27T07:36:42.117Z,71.35
2019-03-27T07:37:42.467Z,70.97
2019-03-27T07:38:43.030Z,69.90
2019-03-27T07:39:43.453Z,69.22
2019-03-27T07:40:43.747Z,67.95
2019-03-27T07:41:44.142Z,66.60
2019-03-27T07:42:44.777Z,65.89
2019-03-27T07:43:45.337Z,64.95
2019-03-27T07:44:44.643Z,64.80
2019-03-27T07:45:46.626Z,63.86
2019-03-27T07:46:47.115Z,65.11
2019-03-27T07:47:48.284Z,66.70
2019-03-27T07:48:53.935Z,64.80
2019-03-27T07:49:47.619Z,65.19
2019-03-27T07:50:49.156Z,64.62
2019-03-27T07:51:49.771Z,64.37
2019-03-27T07:52:50.191Z,64.19
2019-03-27T07:53:50.631Z,62.90
2019-03-27T07:54:51.542Z,61.80
2019-03-27T07:55:51.953Z,63.03
2019-03-27T07:56:52.921Z,62.88
2019-03-27T07:57:53.787Z,62.62
2019-03-27T07:58:54.599Z,62.35
2019-03-27T07:59:54.871Z,63.13
2019-03-27T08:00:54.428Z,62.75
2019-03-27T08:01:55.791Z,62.93
2019-03-27T08:02:56.323Z,61.43
2019-03-27T08:03:56.701Z,61.52
2019-03-27T08:04:57.152Z,63.18
2019-03-27T08:05:05.691Z,62.10
2019-03-27T08:06:07.168Z,62.38
2019-03-27T08:07:07.590Z,61.79
2019-03-27T08:08:07.985Z,61.32
2019-03-27T08:09:08.507Z,61.96
2019-03-27T08:10:08.886Z,60.51
2019-03-27T08:11:09.288Z,61.17
2019-03-27T08:12:09.541Z,61.01
2019-03-27T08:13:10.091Z,61.05
2019-03-27T08:14:10.902Z,60.24
2019-03-27T08:15:11.478Z,59.63
2019-03-27T08:16:12.820Z,60.48
2019-03-27T08:17:12.457Z,59.67
2019-03-27T08:18:12.679Z,60.07
2019-03-27T08:19:13.134Z,60.39
2019-03-27T08:20:13.637Z,61.47
2019-03-27T08:21:14.113Z,61.56
2019-03-27T08:22:14.603Z,59.91
2019-03-27T08:23:15.024Z,60.85
2019-03-27T08:24:15.844Z,61.36
2019-03-27T08:25:20.696Z,61.14
2019-03-27T08:26:17.108Z,61.28
2019-03-27T08:27:17.518Z,61.92
2019-03-27T08:28:17.951Z,62.13
2019-03-27T08:29:18.617Z,61.63
2019-03-27T08:30:19.241Z,61.32
2019-03-27T08:31:19.753Z,62.27
2019-03-27T08:32:20.175Z,62.08
2019-03-27T08:33:20.524Z,62.42
2019-03-27T08:34:21.451Z,63.26
2019-03-27T08:35:21.854Z,64.50
2019-03-27T08:36:22.238Z,65.93
2019-03-27T08:37:23.436Z,66.51
2019-03-27T08:38:23.050Z,66.84
2019-03-27T08:39:24.476Z,66.71
2019-03-27T08:40:25.269Z,66.65
2019-03-27T08:41:25.719Z,66.76
2019-03-27T08:42:25.397Z,67.39
2019-03-27T08:43:26.158Z,67.99
2019-03-27T08:44:27.408Z,68.66
2019-03-27T08:45:27.781Z,68.21
2019-03-27T08:46:28.171Z,68.70
2019-03-27T08:47:28.942Z,69.72
2019-03-27T08:48:29.787Z,69.30
2019-03-27T08:49:30.631Z,69.99
2019-03-27T08:50:31.088Z,69.61
2019-03-27T08:50:42.130Z,69.74
2019-03-27T08:51:42.665Z,69.69
2019-03-27T08:52:44.091Z,69.31
2019-03-27T08:53:43.572Z,69.97
2019-03-27T08:54:43.999Z,70.13
2019-03-27T08:55:44.525Z,70.71
2019-03-27T08:56:45.207Z,71.00
2019-03-27T08:57:45.742Z,71.63
2019-03-27T08:58:46.224Z,71.90
2019-03-27T08:59:47.048Z,72.78
2019-03-27T09:00:46.568Z,72.33
2019-03-27T09:01:47.983Z,73.43
2019-03-27T09:02:48.479Z,73.96
2019-03-27T09:03:49.242Z,73.89
2019-03-27T09:04:48.801Z,73.74
2019-03-27T09:05:49.175Z,74.54
2019-03-27T09:06:50.554Z,73.98
2019-03-27T09:07:50.971Z,73.98
2019-03-27T09:08:51.356Z,74.57
2019-03-27T09:09:51.525Z,74.34
2019-03-27T09:10:51.948Z,75.23
2019-03-27T09:11:52.321Z,74.95
2019-03-27T09:12:52.720Z,74.89
2019-03-27T09:13:52.410Z,74.47
2019-03-27T09:14:55.228Z,74.68
2019-03-27T09:15:54.148Z,74.47
2019-03-27T09:16:54.709Z,74.20
2019-03-27T09:17:55.162Z,74.38
2019-03-27T09:18:55.861Z,74.57
2019-03-27T09:19:56.128Z,74.01
2019-03-27T09:20:57.953Z,71.96
2019-03-27T09:21:57.549Z,71.92
2019-03-27T09:22:57.948Z,71.29
2019-03-27T09:23:58.824Z,70.27
2019-03-27T09:24:59.348Z,70.12
2019-03-27T09:26:00.108Z,69.20
2019-03-27T09:27:00.392Z,69.33
2019-03-27T09:28:01.817Z,69.22
2019-03-27T09:29:01.451Z,68.29
2019-03-27T09:30:02.302Z,69.27
2019-03-27T09:31:02.869Z,68.76
2019-03-27T09:32:02.874Z,68.03
2019-03-27T09:33:03.260Z,68.11
2019-03-27T09:34:04.961Z,68.50
2019-03-27T09:35:04.182Z,69.78
2019-03-27T09:35:13.236Z,69.70
2019-03-27T09:36:14.716Z,69.44
2019-03-27T09:37:15.341Z,69.78
2019-03-27T09:38:15.741Z,69.78
2019-03-27T09:39:15.901Z,70.74
2019-03-27T09:40:16.263Z,71.21
2019-03-27T09:41:21.243Z,71.21
2019-03-27T09:42:16.467Z,71.32
2019-03-27T09:43:18.944Z,70.24
2019-03-27T09:44:18.492Z,69.81
2019-03-27T09:45:18.912Z,70.02
2019-03-27T09:46:19.483Z,70.15
2019-03-27T09:47:20.327Z,70.15
2019-03-27T09:48:20.944Z,70.80
2019-03-27T09:49:20.428Z,71.33
2019-03-27T09:50:22.195Z,70.02
2019-03-27T09:51:22.875Z,68.28
2019-03-27T09:52:23.516Z,68.13
2019-03-27T09:53:24.417Z,69.26
2019-03-27T09:54:24.814Z,69.28
2019-03-27T09:55:25.333Z,69.18
2019-03-27T09:56:26.116Z,69.58
2019-03-27T09:57:26.679Z,69.30
2019-03-27T09:58:27.228Z,67.68
2019-03-27T09:59:27.521Z,68.28
2019-03-27T10:00:28.030Z,69.31
2019-03-27T10:01:28.534Z,69.30
2019-03-27T10:02:29.005Z,68.85
2019-03-27T10:03:28.165Z,69.41
2019-03-27T10:04:29.716Z,68.98
2019-03-27T10:05:29.737Z,67.83
2019-03-27T10:06:29.763Z,67.69
2019-03-27T10:07:30.249Z,67.42
2019-03-27T10:08:30.629Z,66.83
2019-03-27T10:09:31.510Z,67.20
2019-03-27T10:10:31.994Z,67.01
2019-03-27T10:11:32.766Z,67.02
2019-03-27T10:12:32.990Z,68.34
2019-03-27T10:13:33.709Z,67.47
2019-03-27T10:14:34.331Z,66.47
2019-03-27T10:15:33.933Z,66.76
2019-03-27T10:16:35.273Z,67.24
2019-03-27T10:17:34.574Z,67.40
2019-03-27T10:18:36.051Z,67.74
2019-03-27T10:19:36.081Z,67.81
2019-03-27T10:20:36.624Z,67.49
2019-03-27T10:20:45.500Z,66.92
2019-03-27T10:21:47.162Z,66.97
2019-03-27T10:22:49.162Z,67.57
2019-03-27T10:23:47.494Z,67.57
2019-03-27T10:24:49.233Z,68.54
2019-03-27T10:25:49.361Z,68.17
2019-03-27T10:26:49.793Z,67.99
2019-03-27T10:27:50.286Z,67.88
2019-03-27T10:28:50.740Z,67.66
2019-03-27T10:29:52.269Z,67.78
2019-03-27T10:30:51.090Z,68.25
2019-03-27T10:31:51.605Z,67.31
2019-03-27T10:32:52.889Z,66.46
2019-03-27T10:33:53.141Z,66.44
2019-03-27T10:34:52.924Z,64.65
2019-03-27T10:35:53.198Z,64.00
2019-03-27T10:36:54.577Z,64.24
2019-03-27T10:37:55.371Z,62.99
2019-03-27T10:38:54.812Z,63.13
2019-03-27T10:39:55.158Z,63.46
2019-03-27T10:40:56.502Z,61.86
2019-03-27T10:41:56.925Z,61.31
2019-03-27T10:42:57.689Z,61.54
2019-03-27T10:43:58.021Z,62.72
2019-03-27T10:44:57.245Z,62.85
2019-03-27T10:45:59.081Z,63.65
2019-03-27T10:46:59.569Z,63.94
2019-03-27T10:48:00.102Z,64.22
2019-03-27T10:49:00.742Z,63.65
2019-03-27T10:50:01.610Z,63.43
2019-03-27T10:51:02.181Z,63.10
2019-03-27T10:52:02.666Z,63.09
2019-03-27T10:53:03.119Z,63.35
2019-03-27T10:54:03.617Z,63.85
2019-03-27T10:55:03.899Z,63.88
2019-03-27T10:56:03.780Z,62.99
2019-03-27T10:57:05.217Z,64.10
2019-03-27T10:58:05.582Z,64.51
2019-03-27T10:59:06.372Z,65.12
2019-03-27T11:00:06.679Z,65.18
2019-03-27T11:01:07.310Z,65.85
2019-03-27T11:02:06.925Z,64.74
2019-03-27T11:03:08.446Z,64.39
2019-03-27T11:04:08.009Z,63.67
2019-03-27T11:05:09.012Z,63.26
2019-03-27T11:06:09.655Z,61.62
2019-03-27T11:07:10.269Z,62.51
2019-03-27T11:08:11.544Z,61.71
2019-03-27T11:09:10.471Z,61.62
2019-03-27T11:10:12.041Z,60.99
2019-03-27T11:11:12.191Z,60.04
2019-03-27T11:12:12.643Z,59.71
2019-03-27T11:13:13.188Z,59.99
2019-03-27T11:14:13.602Z,60.57
2019-03-27T11:15:14.522Z,60.92
2019-03-27T11:15:23.062Z,60.95
2019-03-27T11:16:24.160Z,61.18
2019-03-27T11:17:24.808Z,61.12
2019-03-27T11:18:24.400Z,61.72
2019-03-27T11:19:26.171Z,60.37
2019-03-27T11:20:31.111Z,60.06
2019-03-27T11:21:26.091Z,60.75
2019-03-27T11:22:27.671Z,59.50
2019-03-27T11:23:28.062Z,59.72
2019-03-27T11:24:28.443Z,59.25
2019-03-27T11:25:28.903Z,59.77
2019-03-27T11:26:29.362Z,59.79
2019-03-27T11:27:29.974Z,59.21
2019-03-27T11:28:30.504Z,59.61
2019-03-27T11:29:30.894Z,59.16
2019-03-27T11:30:31.685Z,56.69
2019-03-27T11:31:32.051Z,56.98
2019-03-27T11:32:31.513Z,55.46
2019-03-27T11:33:32.984Z,56.18
2019-03-27T11:34:33.450Z,55.94
2019-03-27T11:35:33.954Z,56.90
2019-03-27T11:36:35.294Z,56.82
2019-03-27T11:37:33.924Z,56.99
2019-03-27T11:38:37.542Z,56.34
2019-03-27T11:39:34.712Z,55.92
2019-03-27T11:40:36.071Z,56.54
2019-03-27T11:41:36.548Z,57.44
2019-03-27T11:42:37.078Z,58.60
2019-03-27T11:43:37.498Z,57.96
2019-03-27T11:44:38.047Z,57.68
2019-03-27T11:45:38.449Z,56.73
2019-03-27T11:46:39.075Z,56.05
2019-03-27T11:47:39.460Z,55.76
2019-03-27T11:48:39.931Z,56.01
2019-03-27T11:49:40.329Z,56.95
2019-03-27T11:50:45.044Z,58.26
2019-03-27T11:51:40.344Z,58.83
2019-03-27T11:52:40.633Z,59.16
2019-03-27T11:53:42.166Z,59.67
2019-03-27T11:54:42.747Z,60.17
2019-03-27T11:55:43.106Z,59.55
2019-03-27T11:56:43.654Z,56.68
2019-03-27T11:57:43.999Z,57.41
2019-03-27T11:58:44.590Z,57.82
2019-03-27T11:59:53.742Z,57.35
2019-03-27T12:00:54.428Z,58.14
2019-03-27T12:01:45.084Z,58.43
2019-03-27T12:02:46.622Z,58.81
2019-03-27T12:03:47.333Z,59.66
2019-03-27T12:04:47.677Z,59.09
2019-03-27T12:05:48.422Z,58.91
2019-03-27T12:06:48.889Z,59.46
2019-03-27T12:06:57.413Z,58.39
2019-03-27T12:07:58.946Z,58.41
2019-03-27T12:08:59.525Z,57.62
2019-03-27T12:10:00.186Z,55.73
2019-03-27T12:11:00.845Z,55.07
2019-03-27T12:12:01.387Z,54.90
2019-03-27T12:13:01.773Z,54.63
2019-03-27T12:14:02.201Z,56.53
2019-03-27T12:15:01.771Z,57.03
2019-03-27T12:16:03.567Z,56.95
2019-03-27T12:17:04.248Z,55.60
2019-03-27T12:18:04.667Z,56.43
2019-03-27T12:19:05.135Z,57.02
2019-03-27T12:20:05.710Z,57.43
2019-03-27T12:21:06.274Z,57.16
2019-03-27T12:22:06.717Z,56.59
2019-03-27T12:23:07.074Z,56.19
2019-03-27T12:24:07.542Z,56.19
2019-03-27T12:25:06.882Z,56.19
2019-03-27T12:26:08.447Z,57.98
2019-03-27T12:27:09.321Z,57.49
2019-03-27T12:28:10.485Z,56.21
2019-03-27T12:29:09.224Z,57.02
2019-03-27T12:30:10.428Z,58.36
2019-03-27T12:31:10.870Z,60.09
2019-03-27T12:32:10.626Z,60.73
2019-03-27T12:33:12.114Z,61.55
2019-03-27T12:34:12.758Z,62.10
2019-03-27T12:35:14.450Z,62.56
2019-03-27T12:36:13.933Z,61.16
2019-03-27T12:37:14.554Z,60.48
2019-03-27T12:38:15.163Z,61.18
2019-03-27T12:39:15.437Z,61.47
2019-03-27T12:40:15.887Z,60.76
2019-03-27T12:41:16.810Z,61.16
2019-03-27T12:42:17.260Z,60.96
2019-03-27T12:43:17.644Z,61.40
2019-03-27T12:44:18.070Z,61.80
2019-03-27T12:45:18.551Z,61.67
2019-03-27T12:46:18.934Z,60.15
2019-03-27T12:47:19.380Z,59.68
2019-03-27T12:48:19.801Z,60.81